createdAt,value
2019-03-15T00:00:35.495Z,21.33
2019-03-15T00:03:11.697Z,22.82
2019-03-15T00:05:54.175Z,20.80
2019-03-15T00:08:31.339Z,21.30
2019-03-15T00:11:13.272Z,20.70
2019-03-15T00:13:49.772Z,22.05
2019-03-15T00:16:33.030Z,22.20
2019-03-15T00:19:09.324Z,22.13
2019-03-15T00:21:51.187Z,22.77
2019-03-15T00:24:27.161Z,24.40
2019-03-15T00:27:09.853Z,23.02
2019-03-15T00:29:45.348Z,24.72
2019-03-15T00:32:28.800Z,23.95
2019-03-15T00:35:11.392Z,25.08
2019-03-15T00:37:47.389Z,24.02
2019-03-15T00:40:30.105Z,24.90
2019-03-15T00:43:12.405Z,24.70
2019-03-15T00:45:54.966Z,24.43
2019-03-15T00:48:37.671Z,24.50
2019-03-15T00:51:13.724Z,24.12
2019-03-15T00:53:49.486Z,23.73
2019-03-15T00:56:31.732Z,24.60
2019-03-15T00:59:21.744Z,24.02
2019-03-15T01:01:57.804Z,24.80
2019-03-15T01:04:40.087Z,24.35
2019-03-15T01:07:22.959Z,24.47
2019-03-15T01:09:59.279Z,26.03
2019-03-15T01:12:42.505Z,24.67
2019-03-15T01:15:29.069Z,24.47
2019-03-15T01:18:04.579Z,23.98
2019-03-15T01:20:47.742Z,23.75
2019-03-15T01:23:29.781Z,23.52
2019-03-15T01:26:06.213Z,23.02
2019-03-15T01:28:48.380Z,22.87
2019-03-15T01:31:24.694Z,23.00
2019-03-15T01:34:07.480Z,22.80
2019-03-15T01:36:43.040Z,22.70
2019-03-15T01:39:25.280Z,22.75
2019-03-15T01:42:01.656Z,23.95
2019-03-15T01:44:44.373Z,24.47
2019-03-15T01:47:20.424Z,25.85
2019-03-15T01:50:03.558Z,25.20
2019-03-15T01:52:39.762Z,27.27
2019-03-15T01:55:22.558Z,22.52
2019-03-15T01:57:59.018Z,24.05
2019-03-15T02:00:41.889Z,23.62
2019-03-15T02:03:24.056Z,24.77
2019-03-15T02:06:06.908Z,22.98
2019-03-15T02:08:42.711Z,24.17
2019-03-15T02:11:25.096Z,23.02
2019-03-15T02:14:08.359Z,23.12
2019-03-15T02:16:51.207Z,22.48
2019-03-15T02:19:26.688Z,22.77
2019-03-15T02:22:08.998Z,22.90
2019-03-15T02:24:52.208Z,23.10
2019-03-15T02:27:34.543Z,23.70
2019-03-15T02:30:13.396Z,23.00
2019-03-15T02:32:49.159Z,21.52
2019-03-15T02:35:32.336Z,23.42
2019-03-15T02:38:22.039Z,23.12
2019-03-15T02:40:57.790Z,22.00
2019-03-15T02:43:39.871Z,22.07
2019-03-15T02:46:22.375Z,30.68
2019-03-15T02:48:58.840Z,26.82
2019-03-15T02:51:40.373Z,25.12
2019-03-15T02:54:23.099Z,24.00
2019-03-15T02:56:58.696Z,25.02
2019-03-15T02:59:41.014Z,24.20
2019-03-15T03:02:17.037Z,24.82
2019-03-15T03:04:58.736Z,24.32
2019-03-15T03:07:34.565Z,24.92
2019-03-15T03:10:17.392Z,24.07
2019-03-15T03:12:53.751Z,23.40
2019-03-15T03:15:36.774Z,23.73
2019-03-15T03:18:12.916Z,24.37
2019-03-15T03:20:55.416Z,23.57
2019-03-15T03:23:38.611Z,24.40
2019-03-15T03:26:20.660Z,24.82
2019-03-15T03:28:57.044Z,24.37
2019-03-15T03:31:40.257Z,23.92
2019-03-15T03:34:16.784Z,25.92
2019-03-15T03:36:59.701Z,28.10
2019-03-15T03:39:35.565Z,27.60
2019-03-15T03:42:18.443Z,25.30
2019-03-15T03:44:54.768Z,25.77
2019-03-15T03:47:36.839Z,25.12
2019-03-15T03:50:16.813Z,24.60
2019-03-15T03:52:58.405Z,24.47
2019-03-15T03:55:34.126Z,25.30
2019-03-15T03:58:17.089Z,24.23
2019-03-15T04:01:00.394Z,24.90
2019-03-15T04:04:02.963Z,25.25
2019-03-15T04:06:44.620Z,24.98
2019-03-15T04:09:26.585Z,24.80
2019-03-15T04:12:02.106Z,24.43
2019-03-15T04:14:44.752Z,24.65
2019-03-15T04:17:26.441Z,24.35
2019-03-15T04:20:09.639Z,24.20
2019-03-15T04:22:45.689Z,24.72
2019-03-15T04:25:28.866Z,24.75
2019-03-15T04:28:04.741Z,24.98
2019-03-15T04:30:46.514Z,26.05
2019-03-15T04:33:22.905Z,24.67
2019-03-15T04:36:05.344Z,25.45
2019-03-15T04:38:41.676Z,23.65
2019-03-15T04:41:24.680Z,24.32
2019-03-15T04:44:01.053Z,26.50
2019-03-15T04:46:43.514Z,25.82
2019-03-15T04:49:19.495Z,25.52
2019-03-15T04:52:01.692Z,26.33
2019-03-15T04:54:38.050Z,24.65
2019-03-15T04:57:20.329Z,26.12
2019-03-15T05:00:02.637Z,24.00
2019-03-15T05:02:51.415Z,27.37
2019-03-15T05:05:34.576Z,25.75
2019-03-15T05:08:10.477Z,26.02
2019-03-15T05:10:53.304Z,24.60
2019-03-15T05:16:22.762Z,27.10
2019-03-15T05:18:58.393Z,25.80
2019-03-15T05:21:41.294Z,26.12
2019-03-15T05:24:23.425Z,26.97
2019-03-15T05:27:05.990Z,26.45
2019-03-15T05:29:41.692Z,26.65
2019-03-15T05:32:23.656Z,26.50
2019-03-15T05:35:06.031Z,26.42
2019-03-15T05:37:48.523Z,25.70
2019-03-15T05:40:24.715Z,26.20
2019-03-15T05:43:07.730Z,24.52
2019-03-15T05:45:44.073Z,20.48
2019-03-15T05:48:27.025Z,26.27
2019-03-15T05:51:10.101Z,25.17
2019-03-15T05:53:52.815Z,27.85
2019-03-15T05:56:29.212Z,25.27
2019-03-15T05:59:11.408Z,25.68
2019-03-15T06:01:47.721Z,25.82
2019-03-15T06:04:30.581Z,25.32
2019-03-15T06:07:07.382Z,24.20
2019-03-15T06:09:49.270Z,25.62
2019-03-15T06:12:31.773Z,25.92
2019-03-15T06:15:33.792Z,28.83
2019-03-15T06:18:15.908Z,36.85
2019-03-15T06:20:51.756Z,27.52
2019-03-15T06:23:33.492Z,27.27
2019-03-15T06:26:16.079Z,32.48
2019-03-15T06:29:05.376Z,27.10
2019-03-15T06:31:41.289Z,24.65
2019-03-15T06:34:23.931Z,21.80
2019-03-15T06:37:19.849Z,22.85
2019-03-15T06:40:02.945Z,21.23
2019-03-15T06:42:39.374Z,22.25
2019-03-15T06:45:22.839Z,23.02
2019-03-15T06:47:59.145Z,21.20
2019-03-15T06:50:41.783Z,19.62
2019-03-15T06:53:18.328Z,20.60
2019-03-15T06:56:00.431Z,18.52
2019-03-15T06:58:36.415Z,17.55
2019-03-15T07:01:18.543Z,18.62
2019-03-15T07:04:00.354Z,18.02
2019-03-15T07:06:36.283Z,18.30
2019-03-15T07:09:18.793Z,15.93
2019-03-15T07:11:54.935Z,16.00
2019-03-15T07:14:37.535Z,16.97
2019-03-15T07:17:20.672Z,15.80
2019-03-15T07:20:03.713Z,18.00
2019-03-15T07:22:40.149Z,17.37
2019-03-15T07:25:23.015Z,15.18
2019-03-15T07:27:59.437Z,14.67
2019-03-15T07:30:41.773Z,13.62
2019-03-15T07:33:17.390Z,14.70
2019-03-15T07:35:59.677Z,15.90
2019-03-15T07:38:42.586Z,13.75
2019-03-15T07:41:18.710Z,15.20
2019-03-15T07:44:01.576Z,12.85
2019-03-15T07:46:51.220Z,13.23
2019-03-15T07:49:27.530Z,11.22
2019-03-15T07:52:09.734Z,11.28
2019-03-15T07:54:45.494Z,9.35
2019-03-15T07:57:27.772Z,7.50
2019-03-15T08:00:12.836Z,9.25
2019-03-15T08:02:49.332Z,8.78
2019-03-15T08:05:25.611Z,7.80
2019-03-15T08:08:08.530Z,8.28
2019-03-15T08:10:58.027Z,8.10
2019-03-15T08:13:47.458Z,7.95
2019-03-15T08:16:30.350Z,7.87
2019-03-15T08:19:05.755Z,7.27
2019-03-15T08:21:48.030Z,8.40
2019-03-15T08:24:24.762Z,6.75
2019-03-15T08:27:07.124Z,15.95
2019-03-15T08:29:43.289Z,6.35
2019-03-15T08:32:26.012Z,7.50
2019-03-15T08:35:08.208Z,6.80
2019-03-15T08:37:50.391Z,7.50
2019-03-15T08:40:26.839Z,5.60
2019-03-15T08:43:09.744Z,6.60
2019-03-15T08:45:52.053Z,10.13
2019-03-15T08:48:27.801Z,6.80
2019-03-15T08:51:11.119Z,7.83
2019-03-15T08:53:46.678Z,7.58
2019-03-15T08:56:28.935Z,6.67
2019-03-15T08:59:04.530Z,8.05
2019-03-15T09:01:47.285Z,7.30
2019-03-15T09:04:30.035Z,8.67
2019-03-15T09:07:06.265Z,6.70
2019-03-15T09:09:42.158Z,7.67
2019-03-15T09:12:25.244Z,8.58
2019-03-15T09:15:08.302Z,8.98
2019-03-15T09:17:45.009Z,8.33
2019-03-15T09:20:30.128Z,8.98
2019-03-15T09:23:12.827Z,15.43
2019-03-15T09:25:56.054Z,12.25
2019-03-15T09:28:31.642Z,12.93
2019-03-15T09:31:14.997Z,9.73
2019-03-15T09:33:51.027Z,15.60
2019-03-15T09:36:34.151Z,16.48
2019-03-15T09:39:11.390Z,15.40
2019-03-15T09:41:53.912Z,15.23
2019-03-15T09:44:30.111Z,20.75
2019-03-15T09:47:12.927Z,8.28
2019-03-15T09:49:49.019Z,12.33
2019-03-15T09:52:31.570Z,22.30
2019-03-15T09:55:07.148Z,21.65
2019-03-15T09:57:49.139Z,18.35
2019-03-15T10:00:28.883Z,9.23
2019-03-15T10:03:04.767Z,12.30
2019-03-15T10:05:47.086Z,10.93
2019-03-15T10:08:29.205Z,14.50
2019-03-15T10:11:11.769Z,12.13
2019-03-15T10:13:47.829Z,5.95
2019-03-15T10:16:30.944Z,26.35
2019-03-15T10:19:07.321Z,10.38
2019-03-15T10:21:49.727Z,20.25
2019-03-15T10:24:32.611Z,3.87
2019-03-15T10:27:21.786Z,6.37
2019-03-15T10:29:57.775Z,6.28
2019-03-15T10:32:33.666Z,18.23
2019-03-15T10:35:16.210Z,9.60
2019-03-15T10:37:52.233Z,12.90
2019-03-15T10:40:38.186Z,6.90
2019-03-15T10:43:20.233Z,5.20
2019-03-15T10:45:56.282Z,5.75
2019-03-15T10:48:38.719Z,5.30
2019-03-15T10:51:21.005Z,8.08
2019-03-15T10:53:57.505Z,7.25
2019-03-15T10:56:59.588Z,6.30
2019-03-15T10:59:48.914Z,4.50
2019-03-15T11:02:31.621Z,9.63
2019-03-15T11:05:23.895Z,19.65
2019-03-15T11:08:07.315Z,9.18
2019-03-15T11:10:43.197Z,12.70
2019-03-15T11:13:32.237Z,4.08
2019-03-15T11:16:22.005Z,2.75
2019-03-15T11:19:10.881Z,1.45
2019-03-15T11:21:52.730Z,13.08
2019-03-15T11:24:36.493Z,3.62
2019-03-15T11:29:54.630Z,3.00
2019-03-15T11:32:36.569Z,3.15
2019-03-15T11:35:15.007Z,2.00
2019-03-15T11:37:58.082Z,2.92
2019-03-15T11:40:33.553Z,2.40
2019-03-15T11:43:16.005Z,2.35
2019-03-15T11:45:51.745Z,4.28
2019-03-15T11:48:35.707Z,2.17
2019-03-15T11:51:18.300Z,4.55
2019-03-15T11:54:01.370Z,3.80
2019-03-15T11:56:43.880Z,2.10
2019-03-15T11:59:26.373Z,3.92
2019-03-15T12:02:04.164Z,2.87
2019-03-15T12:04:47.749Z,2.17
2019-03-15T12:07:36.418Z,3.15
2019-03-15T12:10:31.175Z,3.00
2019-03-15T12:13:13.844Z,2.17
2019-03-15T12:15:50.414Z,2.62
2019-03-15T12:18:32.755Z,3.00
2019-03-15T12:21:15.797Z,3.25
2019-03-15T12:23:58.095Z,1.20
2019-03-15T12:26:41.052Z,1.82
2019-03-15T12:29:16.708Z,2.20
2019-03-15T12:31:59.338Z,0.60
2019-03-15T12:34:48.633Z,1.45
2019-03-15T12:37:24.161Z,3.25
2019-03-15T12:40:06.674Z,1.47
2019-03-15T12:42:42.621Z,2.02
2019-03-15T12:45:27.586Z,1.85
2019-03-15T12:48:09.845Z,2.00
2019-03-15T12:50:46.312Z,1.95
2019-03-15T12:53:21.916Z,1.25
2019-03-15T12:56:04.485Z,2.17
2019-03-15T12:58:48.096Z,1.90
2019-03-15T13:01:31.234Z,1.85
2019-03-15T13:04:13.933Z,2.62
2019-03-15T13:06:57.109Z,2.40
2019-03-15T13:09:39.721Z,1.85
2019-03-15T13:12:22.278Z,1.98
2019-03-15T13:15:05.542Z,2.22
2019-03-15T13:17:47.879Z,2.52
2019-03-15T13:20:31.390Z,2.22
2019-03-15T13:23:20.739Z,2.55
2019-03-15T13:25:57.155Z,2.70
2019-03-15T13:28:40.190Z,2.27
2019-03-15T13:31:16.891Z,1.80
2019-03-15T13:33:59.877Z,1.10
2019-03-15T13:36:48.710Z,5.45
2019-03-15T13:39:24.460Z,2.50
2019-03-15T13:42:07.005Z,2.25
2019-03-15T13:44:43.047Z,1.80
2019-03-15T13:47:26.456Z,2.02
2019-03-15T13:50:09.142Z,2.70
2019-03-15T13:52:45.311Z,1.82
2019-03-15T13:55:21.525Z,1.27
2019-03-15T13:57:57.651Z,1.85
2019-03-15T14:00:40.290Z,2.83
2019-03-15T14:03:23.129Z,12.53
2019-03-15T14:06:06.096Z,4.63
2019-03-15T14:08:48.879Z,3.98
2019-03-15T14:11:24.380Z,2.57
2019-03-15T14:14:06.354Z,3.25
2019-03-15T14:16:49.094Z,3.67
2019-03-15T14:19:31.981Z,3.77
2019-03-15T14:22:14.316Z,4.55
2019-03-15T14:24:57.079Z,5.15
2019-03-15T14:27:37.833Z,4.45
2019-03-15T14:30:20.649Z,3.08
2019-03-15T14:33:03.336Z,2.00
2019-03-15T14:35:39.269Z,1.98
2019-03-15T14:38:22.177Z,2.98
2019-03-15T14:41:07.454Z,2.30
2019-03-15T14:43:48.706Z,2.20
2019-03-15T14:46:24.551Z,3.50
2019-03-15T14:49:07.271Z,2.45
2019-03-15T14:51:43.175Z,2.60
2019-03-15T14:54:26.109Z,2.12
2019-03-15T14:57:01.638Z,2.90
2019-03-15T14:59:44.061Z,2.90
2019-03-15T15:02:26.027Z,2.50
2019-03-15T15:05:01.869Z,3.62
2019-03-15T15:07:44.530Z,4.00
2019-03-15T15:10:33.288Z,4.12
2019-03-15T15:13:15.734Z,3.30
2019-03-15T15:15:52.481Z,4.35
2019-03-15T15:18:29.156Z,3.30
2019-03-15T15:21:12.189Z,3.25
2019-03-15T15:23:54.582Z,2.00
2019-03-15T15:26:30.494Z,1.75
2019-03-15T15:29:13.781Z,2.27
2019-03-15T15:31:52.265Z,1.80
2019-03-15T15:34:35.163Z,2.47
2019-03-15T15:37:11.381Z,2.20
2019-03-15T15:39:56.112Z,2.42
2019-03-15T15:42:32.540Z,2.72
2019-03-15T15:45:20.405Z,3.17
2019-03-15T15:47:56.508Z,2.75
2019-03-15T15:50:40.235Z,4.50
2019-03-15T15:56:13.944Z,3.22
2019-03-15T15:58:55.991Z,2.77
2019-03-15T16:01:38.511Z,3.20
2019-03-15T16:04:22.710Z,3.90
2019-03-15T16:06:58.369Z,4.75
2019-03-15T16:09:34.291Z,5.75
2019-03-15T16:12:17.193Z,5.15
2019-03-15T16:14:59.960Z,5.93
2019-03-15T16:17:45.396Z,5.53
2019-03-15T16:20:27.185Z,6.50
2019-03-15T16:23:09.668Z,4.90
2019-03-15T16:25:45.652Z,5.15
2019-03-15T16:28:31.863Z,4.87
2019-03-15T16:31:12.607Z,6.37
2019-03-15T16:33:55.863Z,5.72
2019-03-15T16:36:31.843Z,4.60
2019-03-15T16:39:14.386Z,3.87
2019-03-15T16:41:56.349Z,4.17
2019-03-15T16:44:38.942Z,5.70
2019-03-15T16:47:15.224Z,6.03
2019-03-15T16:49:57.941Z,6.12
2019-03-15T16:52:33.832Z,6.05
2019-03-15T16:55:19.246Z,5.22
2019-03-15T16:58:01.855Z,6.28
2019-03-15T17:00:44.103Z,6.15
2019-03-15T17:03:20.409Z,6.03
2019-03-15T17:05:56.165Z,5.67
2019-03-15T17:08:39.035Z,5.62
2019-03-15T17:11:21.306Z,9.27
2019-03-15T17:14:03.570Z,4.87
2019-03-15T17:16:46.391Z,5.47
2019-03-15T17:19:21.992Z,7.77
2019-03-15T17:25:10.150Z,7.65
2019-03-15T17:27:53.289Z,6.53
2019-03-15T17:30:29.862Z,7.78
2019-03-15T17:33:12.427Z,7.20
2019-03-15T17:35:49.066Z,6.65
2019-03-15T17:38:32.160Z,7.25
2019-03-15T17:41:08.709Z,6.80
2019-03-15T17:43:51.179Z,7.33
2019-03-15T17:46:27.587Z,8.90
2019-03-15T17:49:10.232Z,7.45
2019-03-15T17:51:46.682Z,7.60
2019-03-15T17:54:28.615Z,7.87
2019-03-15T17:57:12.100Z,7.83
2019-03-15T17:59:48.043Z,8.65
2019-03-15T18:02:31.833Z,7.90
2019-03-15T18:07:49.994Z,7.33
2019-03-15T18:10:17.054Z,6.13
2019-03-15T18:13:08.247Z,7.00
2019-03-15T18:15:51.367Z,8.10
2019-03-15T18:18:34.803Z,9.05
2019-03-15T18:26:18.582Z,9.23
2019-03-15T18:31:33.647Z,9.08
2019-03-15T18:34:15.954Z,8.68
2019-03-15T18:36:51.935Z,8.40
2019-03-15T18:39:34.208Z,9.00
2019-03-15T18:42:17.025Z,8.90
2019-03-15T18:45:00.453Z,9.97
2019-03-15T18:47:42.848Z,10.58
2019-03-15T18:50:41.850Z,11.60
2019-03-15T18:53:26.355Z,8.83
2019-03-15T18:56:02.933Z,8.80
2019-03-15T18:58:45.482Z,8.75
2019-03-15T19:01:22.132Z,8.33
2019-03-15T19:04:04.541Z,8.85
2019-03-15T19:06:41.094Z,9.88
2019-03-15T19:09:37.865Z,10.53
2019-03-15T19:12:24.962Z,14.07
2019-03-15T19:15:08.027Z,11.83
2019-03-15T19:17:44.706Z,11.60
2019-03-15T19:20:27.204Z,13.55
2019-03-15T19:23:03.050Z,11.35
2019-03-15T19:25:46.157Z,11.00
2019-03-15T19:28:29.427Z,11.95
2019-03-15T19:31:18.759Z,9.65
2019-03-15T19:33:56.975Z,10.13
2019-03-15T19:36:39.578Z,15.80
2019-03-15T19:39:28.914Z,10.90
2019-03-15T19:42:11.288Z,14.18
2019-03-15T19:44:47.796Z,13.98
2019-03-15T19:47:29.933Z,13.90
2019-03-15T19:50:14.391Z,12.88
2019-03-15T19:52:57.278Z,16.55
2019-03-15T19:55:51.874Z,13.53
2019-03-15T19:58:30.277Z,8.78
2019-03-15T20:01:08.077Z,8.23
2019-03-15T20:03:51.150Z,8.35
2019-03-15T20:06:29.178Z,8.00
2019-03-15T20:09:14.506Z,8.13
2019-03-15T20:11:51.303Z,7.40
2019-03-15T20:14:33.506Z,3.80
2019-03-15T20:17:09.441Z,2.95
2019-03-15T20:19:51.943Z,2.15
2019-03-15T20:22:28.363Z,2.10
2019-03-15T20:25:13.084Z,2.92
2019-03-15T20:27:49.424Z,3.05
2019-03-15T20:30:32.708Z,2.75
2019-03-15T20:33:09.246Z,3.37
2019-03-15T20:35:52.151Z,2.65
2019-03-15T20:38:35.011Z,3.80
2019-03-15T20:41:23.879Z,3.90
2019-03-15T20:44:27.439Z,2.72
2019-03-15T20:47:04.325Z,2.27
2019-03-15T20:49:53.371Z,1.92
2019-03-15T20:52:42.160Z,2.30
2019-03-15T20:55:31.518Z,2.67
2019-03-15T20:58:22.301Z,5.65
2019-03-15T21:01:11.421Z,25.85
2019-03-15T21:04:00.481Z,4.03
2019-03-15T21:06:52.863Z,4.00
2019-03-15T21:09:42.367Z,3.80
2019-03-15T21:12:24.759Z,3.33
2019-03-15T21:15:06.826Z,3.00
2019-03-15T21:17:42.382Z,3.42
2019-03-15T21:20:26.130Z,2.70
2019-03-15T21:25:41.690Z,3.37
2019-03-15T21:28:23.970Z,4.33
2019-03-15T21:31:06.075Z,3.70
2019-03-15T21:33:55.736Z,3.02
2019-03-15T21:36:45.464Z,2.42
2019-03-15T21:39:12.506Z,4.03
2019-03-15T21:42:01.880Z,3.47
2019-03-15T21:44:54.171Z,4.58
2019-03-15T21:50:10.040Z,2.55
2019-03-15T21:53:19.382Z,2.92
2019-03-15T21:56:08.712Z,2.05
2019-03-15T22:01:24.138Z,2.27
2019-03-15T22:04:14.047Z,1.87
2019-03-15T22:07:03.850Z,2.40
2019-03-15T22:09:55.407Z,4.17
2019-03-15T22:12:45.369Z,31.68
2019-03-15T22:15:34.802Z,19.35
2019-03-15T22:18:24.561Z,11.60
2019-03-15T22:21:14.055Z,2.75
2019-03-15T22:23:41.101Z,4.45
2019-03-15T22:26:30.191Z,4.17
2019-03-15T22:29:13.004Z,2.30
2019-03-15T22:31:55.094Z,2.10
2019-03-15T22:34:45.017Z,1.72
2019-03-15T22:37:35.024Z,1.52
2019-03-15T22:40:26.551Z,2.60
2019-03-15T22:43:16.002Z,2.65
2019-03-15T22:46:05.063Z,3.02
2019-03-15T22:48:54.344Z,3.20
2019-03-15T22:51:43.308Z,2.87
2019-03-15T22:54:32.562Z,3.90
2019-03-15T22:57:21.169Z,3.47
2019-03-15T23:02:44.783Z,4.33
2019-03-15T23:05:34.195Z,3.35
2019-03-15T23:10:51.238Z,2.92
2019-03-15T23:13:40.351Z,3.83
2019-03-15T23:16:29.933Z,3.30
2019-03-15T23:19:19.628Z,4.25
2019-03-15T23:22:08.825Z,3.67
2019-03-15T23:24:51.115Z,3.70
2019-03-15T23:27:27.704Z,2.92
2019-03-15T23:30:11.266Z,3.40
2019-03-15T23:32:53.835Z,2.35
2019-03-15T23:40:41.663Z,2.55
2019-03-15T23:43:17.325Z,2.98
2019-03-15T23:45:59.756Z,3.05
2019-03-15T23:48:36.320Z,2.70
2019-03-15T23:51:18.742Z,2.67
2019-03-15T23:53:55.159Z,3.50
2019-03-15T23:56:37.241Z,2.47
2019-03-15T23:59:19.767Z,2.60
